sensor_id;sensor_type;location;lat;lon;timestamp;pressure;altitude;pressure_sealevel;temperature;humidity
17781;BME280;8498;52.516;13.790;2023-02-23T00:02:25;100933.56;;;6.05;85.40
17781;BME280;8498;52.516;13.790;2023-02-23T00:07:47;100928.69;;;5.96;85.40
17781;BME280;8498;52.516;13.790;2023-02-23T00:13:09;100929.00;;;5.90;86.04
17781;BME280;8498;52.516;13.790;2023-02-23T00:18:32;100929.44;;;6.00;85.63
17781;BME280;8498;52.516;13.790;2023-02-23T00:24:08;100923.56;;;5.93;85.57
17781;BME280;8498;52.516;13.790;2023-02-23T00:29:31;100926.56;;;5.84;86.05
17781;BME280;8498;52.516;13.790;2023-02-23T00:34:59;100917.41;;;5.93;86.03
17781;BME280;8498;52.516;13.790;2023-02-23T00:40:22;100918.66;;;5.84;85.96
17781;BME280;8498;52.516;13.790;2023-02-23T00:45:45;100914.47;;;5.80;86.01
17781;BME280;8498;52.516;13.790;2023-02-23T00:51:08;100919.41;;;5.87;85.70
17781;BME280;8498;52.516;13.790;2023-02-23T00:56:31;100909.25;;;5.78;86.20
17781;BME280;8498;52.516;13.790;2023-02-23T01:01:53;100904.84;;;5.79;85.92
17781;BME280;8498;52.516;13.790;2023-02-23T01:07:16;100910.53;;;5.70;86.07
17781;BME280;8498;52.516;13.790;2023-02-23T01:12:39;100914.09;;;5.69;86.17
17781;BME280;8498;52.516;13.790;2023-02-23T01:18:01;100901.22;;;5.61;86.61
17781;BME280;8498;52.516;13.790;2023-02-23T01:23:24;100896.13;;;5.58;86.77
17781;BME280;8498;52.516;13.790;2023-02-23T01:34:13;100905.19;;;5.51;86.72
17781;BME280;8498;52.516;13.790;2023-02-23T01:39:36;100895.91;;;5.63;86.16
17781;BME280;8498;52.516;13.790;2023-02-23T01:45:36;100885.56;;;5.58;86.32
17781;BME280;8498;52.516;13.790;2023-02-23T01:51:19;100877.16;;;5.50;86.85
17781;BME280;8498;52.516;13.790;2023-02-23T01:56:47;100878.94;;;5.49;86.46
17781;BME280;8498;52.516;13.790;2023-02-23T02:02:22;100876.00;;;5.56;86.60
17781;BME280;8498;52.516;13.790;2023-02-23T02:07:48;100871.47;;;5.59;86.11
17781;BME280;8498;52.516;13.790;2023-02-23T02:13:16;100867.38;;;5.52;86.15
17781;BME280;8498;52.516;13.790;2023-02-23T02:19:07;100851.00;;;5.45;86.35
17781;BME280;8498;52.516;13.790;2023-02-23T02:25:03;100842.78;;;5.33;86.83
17781;BME280;8498;52.516;13.790;2023-02-23T02:42:32;100848.03;;;5.33;86.74
17781;BME280;8498;52.516;13.790;2023-02-23T02:54:01;100837.50;;;5.33;86.63
17781;BME280;8498;52.516;13.790;2023-02-23T02:59:29;100831.91;;;5.20;86.57
17781;BME280;8498;52.516;13.790;2023-02-23T03:05:15;100832.78;;;5.21;86.68
17781;BME280;8498;52.516;13.790;2023-02-23T03:11:06;100816.38;;;5.14;86.48
17781;BME280;8498;52.516;13.790;2023-02-23T03:22:55;100815.13;;;5.02;87.14
17781;BME280;8498;52.516;13.790;2023-02-23T03:28:49;100815.06;;;5.04;87.09
17781;BME280;8498;52.516;13.790;2023-02-23T03:34:50;100804.09;;;4.94;87.25
17781;BME280;8498;52.516;13.790;2023-02-23T03:40:39;100809.47;;;4.91;87.19
17781;BME280;8498;52.516;13.790;2023-02-23T03:46:24;100809.34;;;4.94;87.15
17781;BME280;8498;52.516;13.790;2023-02-23T03:52:16;100796.59;;;4.85;87.32
17781;BME280;8498;52.516;13.790;2023-02-23T03:57:59;100789.66;;;4.83;87.39
17781;BME280;8498;52.516;13.790;2023-02-23T04:03:43;100794.13;;;4.80;87.25
17781;BME280;8498;52.516;13.790;2023-02-23T04:09:25;100798.31;;;4.86;86.98
17781;BME280;8498;52.516;13.790;2023-02-23T04:15:12;100795.78;;;4.83;86.87
17781;BME280;8498;52.516;13.790;2023-02-23T04:20:36;100789.59;;;4.64;87.32
17781;BME280;8498;52.516;13.790;2023-02-23T04:25:58;100793.94;;;4.65;87.31
17781;BME280;8498;52.516;13.790;2023-02-23T04:31:20;100789.72;;;4.61;87.51
17781;BME280;8498;52.516;13.790;2023-02-23T04:36:46;100791.75;;;4.54;87.98
17781;BME280;8498;52.516;13.790;2023-02-23T04:42:08;100791.94;;;4.50;87.67
17781;BME280;8498;52.516;13.790;2023-02-23T04:47:31;100786.03;;;4.45;87.77
17781;BME280;8498;52.516;13.790;2023-02-23T04:52:53;100774.88;;;4.38;87.91
17781;BME280;8498;52.516;13.790;2023-02-23T04:58:16;100772.56;;;4.30;88.45
17781;BME280;8498;52.516;13.790;2023-02-23T05:03:38;100767.25;;;4.32;88.30
17781;BME280;8498;52.516;13.790;2023-02-23T05:09:01;100768.22;;;4.29;88.41
17781;BME280;8498;52.516;13.790;2023-02-23T05:14:24;100767.88;;;4.17;89.25
17781;BME280;8498;52.516;13.790;2023-02-23T05:19:46;100766.66;;;4.25;88.65
17781;BME280;8498;52.516;13.790;2023-02-23T05:25:09;100763.34;;;4.20;88.71
17781;BME280;8498;52.516;13.790;2023-02-23T05:30:33;100762.69;;;4.15;88.53
17781;BME280;8498;52.516;13.790;2023-02-23T05:35:56;100760.19;;;4.12;88.68
17781;BME280;8498;52.516;13.790;2023-02-23T05:41:20;100756.06;;;4.05;88.58
17781;BME280;8498;52.516;13.790;2023-02-23T05:46:44;100760.50;;;4.04;88.94
17781;BME280;8498;52.516;13.790;2023-02-23T05:52:07;100755.41;;;4.00;89.20
17781;BME280;8498;52.516;13.790;2023-02-23T05:57:30;100765.91;;;4.00;89.07
17781;BME280;8498;52.516;13.790;2023-02-23T06:02:53;100766.84;;;3.99;88.85
17781;BME280;8498;52.516;13.790;2023-02-23T06:08:15;100771.28;;;3.97;89.19
17781;BME280;8498;52.516;13.790;2023-02-23T06:13:38;100781.59;;;4.03;88.66
17781;BME280;8498;52.516;13.790;2023-02-23T06:19:01;100789.31;;;4.06;88.55
17781;BME280;8498;52.516;13.790;2023-02-23T06:24:24;100789.31;;;4.06;88.45
17781;BME280;8498;52.516;13.790;2023-02-23T06:29:46;100794.94;;;3.97;88.88
17781;BME280;8498;52.516;13.790;2023-02-23T06:35:08;100800.84;;;4.03;88.57
17781;BME280;8498;52.516;13.790;2023-02-23T06:40:32;100804.31;;;4.04;88.48
17781;BME280;8498;52.516;13.790;2023-02-23T06:45:54;100803.47;;;4.03;88.71
17781;BME280;8498;52.516;13.790;2023-02-23T06:51:17;100803.31;;;4.06;88.82
17781;BME280;8498;52.516;13.790;2023-02-23T06:56:40;100808.47;;;4.10;88.47
17781;BME280;8498;52.516;13.790;2023-02-23T07:02:03;100813.63;;;4.13;88.59
17781;BME280;8498;52.516;13.790;2023-02-23T07:07:28;100807.38;;;4.15;88.35
17781;BME280;8498;52.516;13.790;2023-02-23T07:12:52;100808.16;;;4.17;89.01
17781;BME280;8498;52.516;13.790;2023-02-23T07:18:14;100807.72;;;4.28;88.16
17781;BME280;8498;52.516;13.790;2023-02-23T07:23:37;100808.47;;;4.31;88.37
17781;BME280;8498;52.516;13.790;2023-02-23T07:29:00;100809.69;;;4.45;88.35
17781;BME280;8498;52.516;13.790;2023-02-23T07:34:23;100804.06;;;4.54;87.35
17781;BME280;8498;52.516;13.790;2023-02-23T07:39:45;100797.56;;;4.62;87.40
17781;BME280;8498;52.516;13.790;2023-02-23T07:45:08;100786.63;;;4.71;87.13
17781;BME280;8498;52.516;13.790;2023-02-23T07:50:31;100786.69;;;4.70;87.05
17781;BME280;8498;52.516;13.790;2023-02-23T07:55:57;100788.06;;;4.78;86.92
17781;BME280;8498;52.516;13.790;2023-02-23T08:01:19;100793.03;;;5.06;86.86
17781;BME280;8498;52.516;13.790;2023-02-23T08:06:45;100786.44;;;5.16;85.55
17781;BME280;8498;52.516;13.790;2023-02-23T08:12:08;100784.81;;;5.33;85.44
17781;BME280;8498;52.516;13.790;2023-02-23T08:17:31;100785.00;;;5.48;85.30
17781;BME280;8498;52.516;13.790;2023-02-23T08:22:54;100780.16;;;5.58;84.39
17781;BME280;8498;52.516;13.790;2023-02-23T08:28:16;100783.22;;;5.68;84.48
17781;BME280;8498;52.516;13.790;2023-02-23T08:33:39;100780.03;;;5.80;84.34
17781;BME280;8498;52.516;13.790;2023-02-23T08:39:01;100782.28;;;5.87;83.71
17781;BME280;8498;52.516;13.790;2023-02-23T08:44:24;100784.66;;;5.94;83.49
17781;BME280;8498;52.516;13.790;2023-02-23T08:49:47;100779.13;;;6.00;83.48
17781;BME280;8498;52.516;13.790;2023-02-23T08:55:10;100772.75;;;6.22;83.65
17781;BME280;8498;52.516;13.790;2023-02-23T09:00:33;100777.19;;;6.39;82.89
17781;BME280;8498;52.516;13.790;2023-02-23T09:05:56;100782.31;;;6.59;82.04
17781;BME280;8498;52.516;13.790;2023-02-23T09:11:21;100779.22;;;6.69;81.80
17781;BME280;8498;52.516;13.790;2023-02-23T09:16:44;100779.06;;;6.89;81.28
17781;BME280;8498;52.516;13.790;2023-02-23T09:22:07;100775.16;;;6.96;80.81
17781;BME280;8498;52.516;13.790;2023-02-23T09:27:29;100783.56;;;7.04;80.81
17781;BME280;8498;52.516;13.790;2023-02-23T09:32:53;100784.31;;;7.23;80.51
17781;BME280;8498;52.516;13.790;2023-02-23T09:38:16;100785.38;;;7.36;80.11
17781;BME280;8498;52.516;13.790;2023-02-23T09:43:43;100771.94;;;7.57;79.40
17781;BME280;8498;52.516;13.790;2023-02-23T09:49:18;100767.00;;;7.82;79.23
17781;BME280;8498;52.516;13.790;2023-02-23T09:54:41;100775.03;;;7.96;78.15
17781;BME280;8498;52.516;13.790;2023-02-23T10:00:30;100774.84;;;7.99;78.17
17781;BME280;8498;52.516;13.790;2023-02-23T10:06:01;100774.69;;;8.02;78.54
17781;BME280;8498;52.516;13.790;2023-02-23T10:11:53;100763.22;;;8.49;78.24
17781;BME280;8498;52.516;13.790;2023-02-23T10:23:07;100766.03;;;8.76;77.14
17781;BME280;8498;52.516;13.790;2023-02-23T10:28:34;100765.16;;;9.19;76.52
17781;BME280;8498;52.516;13.790;2023-02-23T10:34:01;100767.53;;;9.38;75.17
17781;BME280;8498;52.516;13.790;2023-02-23T10:39:25;100757.16;;;9.90;74.03
17781;BME280;8498;52.516;13.790;2023-02-23T10:44:49;100757.34;;;10.28;72.61
17781;BME280;8498;52.516;13.790;2023-02-23T10:50:13;100754.09;;;10.77;71.57
17781;BME280;8498;52.516;13.790;2023-02-23T10:55:36;100746.69;;;11.08;70.79
17781;BME280;8498;52.516;13.790;2023-02-23T11:01:01;100737.06;;;11.43;69.92
17781;BME280;8498;52.516;13.790;2023-02-23T11:06:33;100737.44;;;11.88;69.71
17781;BME280;8498;52.516;13.790;2023-02-23T11:12:02;100722.66;;;12.07;69.32
17781;BME280;8498;52.516;13.790;2023-02-23T11:22:49;100720.34;;;12.27;68.23
17781;BME280;8498;52.516;13.790;2023-02-23T11:28:18;100712.06;;;12.42;67.78
17781;BME280;8498;52.516;13.790;2023-02-23T11:33:42;100704.72;;;12.57;67.95
17781;BME280;8498;52.516;13.790;2023-02-23T11:39:21;100700.56;;;12.77;67.03
17781;BME280;8498;52.516;13.790;2023-02-23T11:50:28;100691.59;;;12.89;67.97
17781;BME280;8498;52.516;13.790;2023-02-23T11:55:52;100688.47;;;12.95;71.07
17781;BME280;8498;52.516;13.790;2023-02-23T12:01:25;100683.50;;;13.69;65.89
17781;BME280;8498;52.516;13.790;2023-02-23T12:07:37;100674.63;;;12.90;67.55
17781;BME280;8498;52.516;13.790;2023-02-23T12:24:24;100661.41;;;13.67;66.20
17781;BME280;8498;52.516;13.790;2023-02-23T12:30:19;100660.06;;;13.61;65.45
17781;BME280;8498;52.516;13.790;2023-02-23T12:35:58;100653.59;;;13.86;66.08
17781;BME280;8498;52.516;13.790;2023-02-23T12:53:08;100631.03;;;13.25;69.21
17781;BME280;8498;52.516;13.790;2023-02-23T12:58:37;100630.50;;;13.08;69.67
17781;BME280;8498;52.516;13.790;2023-02-23T13:04:28;100638.03;;;13.03;70.77
17781;BME280;8498;52.516;13.790;2023-02-23T13:10:14;100629.69;;;13.19;70.80
17781;BME280;8498;52.516;13.790;2023-02-23T13:21:51;100623.75;;;13.15;70.43
17781;BME280;8498;52.516;13.790;2023-02-23T13:27:25;100612.13;;;13.16;71.35
17781;BME280;8498;52.516;13.790;2023-02-23T13:32:48;100615.75;;;13.15;71.59
17781;BME280;8498;52.516;13.790;2023-02-23T13:38:33;100606.78;;;13.16;72.43
17781;BME280;8498;52.516;13.790;2023-02-23T13:44:27;100598.91;;;13.26;72.20
17781;BME280;8498;52.516;13.790;2023-02-23T13:50:00;100600.81;;;13.35;71.84
17781;BME280;8498;52.516;13.790;2023-02-23T14:01:14;100621.91;;;13.05;72.58
17781;BME280;8498;52.516;13.790;2023-02-23T14:06:39;100611.88;;;12.86;73.87
17781;BME280;8498;52.516;13.790;2023-02-23T14:18:03;100619.31;;;12.47;75.48
17781;BME280;8498;52.516;13.790;2023-02-23T14:23:32;100618.59;;;12.57;75.82
17781;BME280;8498;52.516;13.790;2023-02-23T14:29:21;100625.03;;;12.54;76.09
17781;BME280;8498;52.516;13.790;2023-02-23T14:40:22;100627.06;;;12.50;76.39
17781;BME280;8498;52.516;13.790;2023-02-23T14:45:46;100626.31;;;12.37;77.12
17781;BME280;8498;52.516;13.790;2023-02-23T14:51:32;100631.22;;;12.20;76.95
17781;BME280;8498;52.516;13.790;2023-02-23T14:56:54;100623.75;;;12.25;77.67
17781;BME280;8498;52.516;13.790;2023-02-23T15:02:22;100618.66;;;12.22;77.82
17781;BME280;8498;52.516;13.790;2023-02-23T15:07:45;100619.94;;;12.16;78.00
17781;BME280;8498;52.516;13.790;2023-02-23T15:13:29;100618.03;;;12.18;78.36
17781;BME280;8498;52.516;13.790;2023-02-23T15:18:52;100629.38;;;12.09;78.61
17781;BME280;8498;52.516;13.790;2023-02-23T15:24:14;100619.41;;;12.00;79.75
17781;BME280;8498;52.516;13.790;2023-02-23T15:29:38;100624.97;;;11.97;79.89
17781;BME280;8498;52.516;13.790;2023-02-23T15:35:00;100625.88;;;11.85;80.90
17781;BME280;8498;52.516;13.790;2023-02-23T15:40:25;100619.94;;;11.81;81.74
17781;BME280;8498;52.516;13.790;2023-02-23T15:45:51;100625.44;;;11.91;81.67
17781;BME280;8498;52.516;13.790;2023-02-23T15:51:34;100614.63;;;11.81;83.03
17781;BME280;8498;52.516;13.790;2023-02-23T15:57:03;100608.84;;;11.74;84.32
17781;BME280;8498;52.516;13.790;2023-02-23T16:02:28;100607.81;;;11.64;86.08
17781;BME280;8498;52.516;13.790;2023-02-23T16:08:18;100610.06;;;11.70;87.52
17781;BME280;8498;52.516;13.790;2023-02-23T16:13:45;100598.00;;;11.77;87.08
17781;BME280;8498;52.516;13.790;2023-02-23T16:19:11;100600.94;;;11.62;87.77
17781;BME280;8498;52.516;13.790;2023-02-23T16:24:36;100601.19;;;11.46;89.06
17781;BME280;8498;52.516;13.790;2023-02-23T16:30:10;100607.50;;;11.32;90.28
17781;BME280;8498;52.516;13.790;2023-02-23T16:35:42;100604.56;;;11.24;91.39
17781;BME280;8498;52.516;13.790;2023-02-23T16:41:22;100609.50;;;11.18;92.98
17781;BME280;8498;52.516;13.790;2023-02-23T16:46:55;100596.31;;;11.03;94.16
17781;BME280;8498;52.516;13.790;2023-02-23T16:52:21;100609.31;;;10.95;95.42
17781;BME280;8498;52.516;13.790;2023-02-23T16:57:47;100607.50;;;10.83;96.47
17781;BME280;8498;52.516;13.790;2023-02-23T17:03:26;100614.63;;;10.83;96.88
17781;BME280;8498;52.516;13.790;2023-02-23T17:08:51;100609.56;;;10.67;98.29
17781;BME280;8498;52.516;13.790;2023-02-23T17:14:24;100620.19;;;10.67;98.22
17781;BME280;8498;52.516;13.790;2023-02-23T17:19:49;100619.53;;;10.51;98.40
17781;BME280;8498;52.516;13.790;2023-02-23T17:25:11;100613.25;;;10.52;99.66
17781;BME280;8498;52.516;13.790;2023-02-23T17:30:35;100612.09;;;10.56;99.43
17781;BME280;8498;52.516;13.790;2023-02-23T17:36:05;100615.28;;;10.48;99.82
17781;BME280;8498;52.516;13.790;2023-02-23T17:41:28;100616.75;;;10.40;100.00
17781;BME280;8498;52.516;13.790;2023-02-23T17:46:52;100616.56;;;10.43;100.00
17781;BME280;8498;52.516;13.790;2023-02-23T17:52:14;100617.69;;;10.39;100.00
17781;BME280;8498;52.516;13.790;2023-02-23T17:57:36;100605.91;;;10.30;100.00
17781;BME280;8498;52.516;13.790;2023-02-23T18:02:59;100608.38;;;10.33;100.00
17781;BME280;8498;52.516;13.790;2023-02-23T18:08:21;100608.47;;;10.32;100.00
17781;BME280;8498;52.516;13.790;2023-02-23T18:13:43;100603.91;;;10.34;100.00
17781;BME280;8498;52.516;13.790;2023-02-23T18:19:09;100603.34;;;10.28;100.00
17781;BME280;8498;52.516;13.790;2023-02-23T18:24:31;100593.59;;;10.29;100.00
17781;BME280;8498;52.516;13.790;2023-02-23T18:29:53;100589.75;;;10.20;100.00
17781;BME280;8498;52.516;13.790;2023-02-23T18:35:16;100591.56;;;10.20;100.00
17781;BME280;8498;52.516;13.790;2023-02-23T18:40:39;100594.53;;;10.28;100.00
17781;BME280;8498;52.516;13.790;2023-02-23T18:46:09;100583.19;;;10.26;100.00
17781;BME280;8498;52.516;13.790;2023-02-23T18:51:32;100587.31;;;10.17;100.00
17781;BME280;8498;52.516;13.790;2023-02-23T18:56:54;100591.25;;;10.24;100.00
17781;BME280;8498;52.516;13.790;2023-02-23T19:02:16;100592.63;;;10.17;100.00
17781;BME280;8498;52.516;13.790;2023-02-23T19:07:40;100595.91;;;10.21;100.00
17781;BME280;8498;52.516;13.790;2023-02-23T19:13:02;100590.41;;;10.24;100.00
17781;BME280;8498;52.516;13.790;2023-02-23T19:18:30;100580.44;;;10.27;100.00
17781;BME280;8498;52.516;13.790;2023-02-23T19:23:53;100577.97;;;10.24;100.00
17781;BME280;8498;52.516;13.790;2023-02-23T19:29:19;100576.69;;;10.30;100.00
17781;BME280;8498;52.516;13.790;2023-02-23T19:34:42;100565.34;;;10.28;100.00
17781;BME280;8498;52.516;13.790;2023-02-23T19:40:05;100567.25;;;10.26;100.00
17781;BME280;8498;52.516;13.790;2023-02-23T19:45:28;100568.09;;;10.64;100.00
17781;BME280;8498;52.516;13.790;2023-02-23T19:50:50;100571.91;;;10.73;100.00
17781;BME280;8498;52.516;13.790;2023-02-23T19:56:15;100570.34;;;10.58;100.00
17781;BME280;8498;52.516;13.790;2023-02-23T20:01:38;100572.34;;;10.42;100.00
17781;BME280;8498;52.516;13.790;2023-02-23T20:07:00;100566.94;;;10.30;100.00
17781;BME280;8498;52.516;13.790;2023-02-23T20:12:23;100558.13;;;10.30;100.00
17781;BME280;8498;52.516;13.790;2023-02-23T20:17:46;100556.53;;;10.27;100.00
17781;BME280;8498;52.516;13.790;2023-02-23T20:23:09;100553.66;;;10.30;100.00
17781;BME280;8498;52.516;13.790;2023-02-23T20:28:31;100559.19;;;10.27;100.00
17781;BME280;8498;52.516;13.790;2023-02-23T20:33:55;100557.69;;;10.23;100.00
17781;BME280;8498;52.516;13.790;2023-02-23T20:39:18;100565.94;;;10.06;100.00
17781;BME280;8498;52.516;13.790;2023-02-23T20:44:41;100561.22;;;9.84;100.00
17781;BME280;8498;52.516;13.790;2023-02-23T20:50:04;100563.78;;;9.86;98.83
17781;BME280;8498;52.516;13.790;2023-02-23T20:55:28;100562.44;;;9.66;97.31
17781;BME280;8498;52.516;13.790;2023-02-23T21:00:51;100558.19;;;9.64;97.38
17781;BME280;8498;52.516;13.790;2023-02-23T21:06:16;100548.63;;;9.61;97.39
17781;BME280;8498;52.516;13.790;2023-02-23T21:11:40;100549.06;;;9.55;97.26
17781;BME280;8498;52.516;13.790;2023-02-23T21:17:02;100551.81;;;9.53;97.42
17781;BME280;8498;52.516;13.790;2023-02-23T21:22:26;100557.28;;;9.50;97.83
17781;BME280;8498;52.516;13.790;2023-02-23T21:27:49;100546.03;;;9.47;97.64
17781;BME280;8498;52.516;13.790;2023-02-23T21:33:12;100539.03;;;9.46;97.49
17781;BME280;8498;52.516;13.790;2023-02-23T21:38:36;100544.06;;;9.36;97.72
17781;BME280;8498;52.516;13.790;2023-02-23T21:44:04;100539.38;;;9.27;97.89
17781;BME280;8498;52.516;13.790;2023-02-23T21:49:26;100527.56;;;9.18;98.36
17781;BME280;8498;52.516;13.790;2023-02-23T21:54:52;100534.88;;;9.15;98.29
17781;BME280;8498;52.516;13.790;2023-02-23T22:00:15;100534.50;;;9.07;98.42
17781;BME280;8498;52.516;13.790;2023-02-23T22:05:37;100529.78;;;9.12;97.89
17781;BME280;8498;52.516;13.790;2023-02-23T22:11:04;100522.69;;;9.12;97.86
17781;BME280;8498;52.516;13.790;2023-02-23T22:16:30;100521.06;;;9.10;97.50
17781;BME280;8498;52.516;13.790;2023-02-23T22:21:53;100522.13;;;8.93;98.32
17781;BME280;8498;52.516;13.790;2023-02-23T22:27:16;100516.66;;;8.96;98.28
17781;BME280;8498;52.516;13.790;2023-02-23T22:32:38;100510.31;;;8.99;97.50
17781;BME280;8498;52.516;13.790;2023-02-23T22:38:01;100504.06;;;9.00;97.53
17781;BME280;8498;52.516;13.790;2023-02-23T22:43:26;100498.78;;;9.00;97.65
17781;BME280;8498;52.516;13.790;2023-02-23T22:48:50;100494.31;;;9.00;97.59
17781;BME280;8498;52.516;13.790;2023-02-23T22:54:13;100491.59;;;8.88;98.21
17781;BME280;8498;52.516;13.790;2023-02-23T22:59:36;100487.06;;;8.90;97.99
17781;BME280;8498;52.516;13.790;2023-02-23T23:04:58;100482.63;;;8.90;98.27
17781;BME280;8498;52.516;13.790;2023-02-23T23:10:23;100477.00;;;8.95;98.20
17781;BME280;8498;52.516;13.790;2023-02-23T23:15:45;100470.00;;;8.94;98.32
17781;BME280;8498;52.516;13.790;2023-02-23T23:21:09;100465.38;;;8.97;98.39
17781;BME280;8498;52.516;13.790;2023-02-23T23:26:36;100469.06;;;8.95;98.60
17781;BME280;8498;52.516;13.790;2023-02-23T23:32:01;100461.00;;;8.96;98.76
17781;BME280;8498;52.516;13.790;2023-02-23T23:37:28;100454.00;;;8.95;98.54
17781;BME280;8498;52.516;13.790;2023-02-23T23:42:50;100446.22;;;8.79;98.83
17781;BME280;8498;52.516;13.790;2023-02-23T23:48:13;100449.06;;;8.76;99.33
17781;BME280;8498;52.516;13.790;2023-02-23T23:53:36;100441.69;;;8.81;99.38
17781;BME280;8498;52.516;13.790;2023-02-23T23:58:59;100437.81;;;8.73;99.38
